createdAt,value
2022-08-28T00:02:24.680Z,67.14
2022-08-28T00:04:51.802Z,67.23
2022-08-28T00:07:18.643Z,67.05
2022-08-28T00:09:45.297Z,67.12
2022-08-28T00:12:12.480Z,66.86
2022-08-28T00:14:39.277Z,66.98
2022-08-28T00:17:06.144Z,66.78
2022-08-28T00:19:35.510Z,66.13
2022-08-28T00:22:06.360Z,65.88
2022-08-28T00:24:33.864Z,65.67
2022-08-28T00:27:18.589Z,65.50
2022-08-28T00:29:45.285Z,65.23
2022-08-28T00:32:11.830Z,65.21
2022-08-28T00:34:38.909Z,64.89
2022-08-28T00:37:05.938Z,64.92
2022-08-28T00:39:32.637Z,64.96
2022-08-28T00:41:59.244Z,64.79
2022-08-28T00:44:28.705Z,65.28
2022-08-28T00:46:57.370Z,64.52
2022-08-28T00:49:27.462Z,64.23
2022-08-28T00:52:12.746Z,64.51
2022-08-28T00:54:39.162Z,64.02
2022-08-28T00:57:09.892Z,63.63
2022-08-28T00:59:36.577Z,63.63
2022-08-28T01:02:03.945Z,63.91
2022-08-28T01:04:32.722Z,63.98
2022-08-28T01:10:51.453Z,63.60
2022-08-28T01:13:18.999Z,63.72
2022-08-28T01:15:46.071Z,63.82
2022-08-28T01:18:17.685Z,64.13
2022-08-28T01:20:51.592Z,64.37
2022-08-28T01:23:49.449Z,64.50
2022-08-28T01:26:15.936Z,64.89
2022-08-28T01:28:42.411Z,64.93
2022-08-28T01:31:11.696Z,65.47
2022-08-28T01:33:42.609Z,65.30
2022-08-28T01:36:12.011Z,65.86
2022-08-28T01:38:40.725Z,65.47
2022-08-28T01:41:07.366Z,65.45
2022-08-28T01:43:34.123Z,65.61
2022-08-28T01:46:04.547Z,65.49
2022-08-28T01:48:36.213Z,65.80
2022-08-28T01:51:03.269Z,65.53
2022-08-28T01:53:32.514Z,65.57
2022-08-28T01:56:04.496Z,65.75
2022-08-28T01:58:36.045Z,65.82
2022-08-28T02:01:08.620Z,65.46
2022-08-28T02:03:35.113Z,65.61
2022-08-28T02:06:01.736Z,66.07
2022-08-28T02:08:28.224Z,65.90
2022-08-28T02:10:54.691Z,65.64
2022-08-28T02:13:22.226Z,65.45
2022-08-28T02:15:52.318Z,65.42
2022-08-28T02:18:18.945Z,65.59
2022-08-28T02:20:45.443Z,65.07
2022-08-28T02:23:12.610Z,65.04
2022-08-28T02:25:39.543Z,64.45
2022-08-28T02:28:06.106Z,64.56
2022-08-28T02:30:33.094Z,64.28
2022-08-28T02:32:59.665Z,64.19
2022-08-28T02:35:26.141Z,63.72
2022-08-28T02:37:54.563Z,63.17
2022-08-28T02:40:24.601Z,63.04
2022-08-28T02:42:52.111Z,62.72
2022-08-28T02:45:19.918Z,62.26
2022-08-28T02:47:47.923Z,62.21
2022-08-28T02:50:17.193Z,62.53
2022-08-28T02:52:44.019Z,62.01
2022-08-28T02:55:12.406Z,62.56
2022-08-28T02:57:38.938Z,62.10
2022-08-28T03:00:08.148Z,61.99
2022-08-28T03:02:34.719Z,62.09
2022-08-28T03:05:01.273Z,62.54
2022-08-28T03:07:29.210Z,62.14
2022-08-28T03:09:56.059Z,62.51
2022-08-28T03:12:25.767Z,62.58
2022-08-28T03:14:54.253Z,62.40
2022-08-28T03:17:22.150Z,62.40
2022-08-28T03:19:50.194Z,62.33
2022-08-28T03:22:39.463Z,62.21
2022-08-28T03:25:07.049Z,62.06
2022-08-28T03:27:33.982Z,62.07
2022-08-28T03:30:01.842Z,61.92
2022-08-28T03:32:29.448Z,62.21
2022-08-28T03:34:55.938Z,61.77
2022-08-28T03:37:22.456Z,61.80
2022-08-28T03:39:49.233Z,61.22
2022-08-28T03:42:15.812Z,61.34
2022-08-28T03:44:42.262Z,61.33
2022-08-28T03:47:09.067Z,61.45
2022-08-28T03:49:36.689Z,61.89
2022-08-28T03:52:04.050Z,61.77
2022-08-28T03:54:31.614Z,61.87
2022-08-28T03:56:58.748Z,61.46
2022-08-28T03:59:26.697Z,61.59
2022-08-28T04:01:58.176Z,61.64
2022-08-28T04:04:24.623Z,61.13
2022-08-28T04:06:51.085Z,60.94
2022-08-28T04:09:17.548Z,61.24
2022-08-28T04:11:44.032Z,61.40
2022-08-28T04:14:12.532Z,60.92
2022-08-28T04:16:39.211Z,61.72
2022-08-28T04:19:05.899Z,60.66
2022-08-28T04:21:32.403Z,60.64
2022-08-28T04:23:59.021Z,60.59
2022-08-28T04:26:27.108Z,61.15
2022-08-28T04:28:55.278Z,61.02
2022-08-28T04:31:32.158Z,60.93
2022-08-28T04:34:01.762Z,60.93
2022-08-28T04:36:28.919Z,60.30
2022-08-28T04:38:57.682Z,60.79
2022-08-28T04:41:24.182Z,60.74
2022-08-28T04:43:52.742Z,60.46
2022-08-28T04:46:19.574Z,60.92
2022-08-28T04:48:46.132Z,60.80
2022-08-28T04:51:15.056Z,60.49
2022-08-28T04:53:42.419Z,60.31
2022-08-28T04:56:11.682Z,59.92
2022-08-28T04:58:39.553Z,60.06
2022-08-28T05:01:09.216Z,59.86
2022-08-28T05:03:35.801Z,59.98
2022-08-28T05:06:03.617Z,59.79
2022-08-28T05:08:31.323Z,59.51
2022-08-28T05:10:58.937Z,59.36
2022-08-28T05:13:25.665Z,59.29
2022-08-28T05:15:52.535Z,58.81
2022-08-28T05:18:22.221Z,58.87
2022-08-28T05:20:49.010Z,59.50
2022-08-28T05:23:16.567Z,59.89
2022-08-28T05:25:46.402Z,59.81
2022-08-28T05:28:14.633Z,59.85
2022-08-28T05:30:41.997Z,60.32
2022-08-28T05:33:09.675Z,60.33
2022-08-28T05:35:38.584Z,59.65
2022-08-28T05:38:06.251Z,59.86
2022-08-28T05:40:33.848Z,59.59
2022-08-28T05:43:00.426Z,59.68
2022-08-28T05:45:26.934Z,59.68
2022-08-28T05:47:54.041Z,59.82
2022-08-28T05:50:20.607Z,59.93
2022-08-28T05:52:47.434Z,60.70
2022-08-28T05:55:14.011Z,60.57
2022-08-28T05:57:41.398Z,60.64
2022-08-28T06:00:12.630Z,60.60
2022-08-28T06:02:40.532Z,59.25
2022-08-28T06:05:07.699Z,59.35
2022-08-28T06:07:34.967Z,58.62
2022-08-28T06:10:01.722Z,57.56
2022-08-28T06:12:28.192Z,58.14
2022-08-28T06:14:54.798Z,58.01
2022-08-28T06:17:23.862Z,57.80
2022-08-28T06:19:50.943Z,57.12
2022-08-28T06:22:18.434Z,57.29
2022-08-28T06:24:44.938Z,57.16
2022-08-28T06:27:11.464Z,56.95
2022-08-28T06:29:37.992Z,56.75
2022-08-28T06:32:04.737Z,56.67
2022-08-28T06:34:31.461Z,57.53
2022-08-28T06:36:57.953Z,57.28
2022-08-28T06:39:24.512Z,57.57
2022-08-28T06:41:51.033Z,57.02
2022-08-28T06:44:19.934Z,56.55
2022-08-28T06:46:51.672Z,57.02
2022-08-28T06:49:18.599Z,56.78
2022-08-28T06:51:45.152Z,56.84
2022-08-28T06:54:11.792Z,56.40
2022-08-28T06:56:38.561Z,56.10
2022-08-28T06:59:05.121Z,56.39
2022-08-28T07:01:35.046Z,56.07
2022-08-28T07:04:07.673Z,56.84
2022-08-28T07:06:39.403Z,56.95
2022-08-28T07:09:09.501Z,56.29
2022-08-28T07:11:36.952Z,56.46
2022-08-28T07:14:04.481Z,56.48
2022-08-28T07:16:34.957Z,56.00
2022-08-28T07:19:04.757Z,55.72
2022-08-28T07:21:33.241Z,55.21
2022-08-28T07:24:06.386Z,54.91
2022-08-28T07:26:32.886Z,54.74
2022-08-28T07:29:10.898Z,55.03
2022-08-28T07:31:41.030Z,54.55
2022-08-28T07:34:09.176Z,54.61
2022-08-28T07:36:35.948Z,53.58
2022-08-28T07:39:02.889Z,51.94
2022-08-28T07:41:32.169Z,52.79
2022-08-28T07:44:17.948Z,52.70
2022-08-28T07:46:45.769Z,52.79
2022-08-28T07:49:15.521Z,52.79
2022-08-28T07:51:41.974Z,52.17
2022-08-28T07:54:11.215Z,52.58
2022-08-28T07:56:43.657Z,52.75
2022-08-28T07:59:11.648Z,52.72
2022-08-28T08:01:44.087Z,52.24
2022-08-28T08:04:13.232Z,52.17
2022-08-28T08:06:41.196Z,53.14
2022-08-28T08:09:09.675Z,50.99
2022-08-28T08:11:36.218Z,51.19
2022-08-28T08:14:04.852Z,48.78
2022-08-28T08:16:35.517Z,48.09
2022-08-28T08:19:02.624Z,48.82
2022-08-28T08:21:30.577Z,50.26
2022-08-28T08:23:58.300Z,50.54
2022-08-28T08:26:28.105Z,49.43
2022-08-28T08:28:55.939Z,49.81
2022-08-28T08:31:26.670Z,49.86
2022-08-28T08:33:56.551Z,49.92
2022-08-28T08:36:25.269Z,49.45
2022-08-28T08:38:59.376Z,50.17
2022-08-28T08:41:33.768Z,48.98
2022-08-28T08:44:17.739Z,49.44
2022-08-28T08:47:03.518Z,48.18
2022-08-28T08:49:35.904Z,47.94
2022-08-28T08:52:05.309Z,47.40
2022-08-28T08:54:32.050Z,46.69
2022-08-28T08:57:02.213Z,47.85
2022-08-28T08:59:33.344Z,47.69
2022-08-28T09:02:10.521Z,48.23
2022-08-28T09:05:01.614Z,48.70
2022-08-28T09:07:37.993Z,49.87
2022-08-28T09:10:08.454Z,49.82
2022-08-28T09:13:12.643Z,50.33
2022-08-28T09:15:42.622Z,50.61
2022-08-28T09:18:18.173Z,51.63
2022-08-28T09:20:50.050Z,51.02
2022-08-28T09:23:16.549Z,51.28
2022-08-28T09:26:01.743Z,51.09
2022-08-28T09:28:37.035Z,50.89
2022-08-28T09:31:13.335Z,50.47
2022-08-28T09:33:43.113Z,51.39
2022-08-28T09:36:23.287Z,51.13
2022-08-28T09:39:14.742Z,50.84
2022-08-28T09:42:11.113Z,50.52
2022-08-28T09:45:09.037Z,50.83
2022-08-28T09:47:46.369Z,50.58
2022-08-28T09:50:30.337Z,50.81
2022-08-28T09:53:19.302Z,52.40
2022-08-28T09:56:10.996Z,50.66
2022-08-28T09:58:57.197Z,50.22
2022-08-28T10:01:29.399Z,50.17
2022-08-28T10:04:22.441Z,50.30
2022-08-28T10:06:51.975Z,51.89
2022-08-28T10:09:39.462Z,51.23
2022-08-28T10:12:40.183Z,51.87
2022-08-28T10:15:14.967Z,52.36
2022-08-28T10:18:06.665Z,52.07
2022-08-28T10:20:50.191Z,52.22
2022-08-28T10:23:42.650Z,52.26
2022-08-28T10:26:21.565Z,52.13
2022-08-28T10:29:18.710Z,52.77
2022-08-28T10:31:55.309Z,53.41
2022-08-28T10:34:30.731Z,54.76
2022-08-28T10:37:10.098Z,55.89
2022-08-28T10:39:53.742Z,54.29
2022-08-28T10:42:59.216Z,54.17
2022-08-28T10:45:26.250Z,55.16
2022-08-28T10:47:58.803Z,54.37
2022-08-28T10:50:30.057Z,54.02
2022-08-28T10:53:17.187Z,53.83
2022-08-28T10:55:49.870Z,54.76
2022-08-28T10:58:25.078Z,54.72
2022-08-28T11:00:56.174Z,54.71
2022-08-28T11:03:35.522Z,54.97
2022-08-28T11:06:11.327Z,54.29
2022-08-28T11:08:39.681Z,54.62
2022-08-28T11:11:13.297Z,55.07
2022-08-28T11:13:45.885Z,55.20
2022-08-28T11:16:23.403Z,55.04
2022-08-28T11:19:04.479Z,55.31
2022-08-28T11:21:41.195Z,55.76
2022-08-28T11:24:21.337Z,55.71
2022-08-28T11:27:00.430Z,57.08
2022-08-28T11:29:57.943Z,56.84
2022-08-28T11:32:33.707Z,55.32
2022-08-28T11:35:02.983Z,56.08
2022-08-28T11:37:40.506Z,58.01
2022-08-28T11:40:28.525Z,57.41
2022-08-28T11:43:16.932Z,56.35
2022-08-28T11:45:46.820Z,56.04
2022-08-28T11:48:36.305Z,55.75
2022-08-28T11:51:17.718Z,56.19
2022-08-28T11:54:03.873Z,55.37
2022-08-28T11:56:50.307Z,55.59
2022-08-28T11:59:22.883Z,56.20
2022-08-28T12:01:49.831Z,55.81
2022-08-28T12:04:20.106Z,55.30
2022-08-28T12:06:54.833Z,56.13
2022-08-28T12:09:40.229Z,55.61
2022-08-28T12:12:21.867Z,55.88
2022-08-28T12:14:48.288Z,55.77
2022-08-28T12:17:15.207Z,56.86
2022-08-28T12:19:51.169Z,56.61
2022-08-28T12:22:25.102Z,56.37
2022-08-28T12:25:01.170Z,56.58
2022-08-28T12:27:28.792Z,56.53
2022-08-28T12:29:57.630Z,55.78
2022-08-28T12:32:33.140Z,55.81
2022-08-28T12:34:59.591Z,56.01
2022-08-28T12:37:50.823Z,56.20
2022-08-28T12:40:50.151Z,55.04
2022-08-28T12:43:40.912Z,54.83
2022-08-28T12:46:19.979Z,54.37
2022-08-28T12:48:52.328Z,55.21
2022-08-28T12:51:25.354Z,54.49
2022-08-28T12:53:58.419Z,54.70
2022-08-28T12:56:29.998Z,54.55
2022-08-28T12:58:56.485Z,54.02
2022-08-28T13:01:33.951Z,53.97
2022-08-28T13:04:19.084Z,54.14
2022-08-28T13:06:45.748Z,55.61
2022-08-28T13:09:24.559Z,54.37
2022-08-28T13:11:51.577Z,53.99
2022-08-28T13:14:37.593Z,54.75
2022-08-28T13:17:04.744Z,53.40
2022-08-28T13:19:33.077Z,52.82
2022-08-28T13:22:02.582Z,52.59
2022-08-28T13:24:39.490Z,51.90
2022-08-28T13:27:16.430Z,51.70
2022-08-28T13:30:20.760Z,51.29
2022-08-28T13:33:14.729Z,52.75
2022-08-28T13:35:42.237Z,52.75
2022-08-28T13:38:12.389Z,53.84
2022-08-28T13:40:57.974Z,53.60
2022-08-28T13:43:28.768Z,54.15
2022-08-28T13:45:55.589Z,52.50
2022-08-28T13:48:25.839Z,52.49
2022-08-28T13:51:10.840Z,52.59
2022-08-28T13:53:41.201Z,52.68
2022-08-28T13:56:07.703Z,52.26
2022-08-28T13:58:34.220Z,51.82
2022-08-28T14:01:01.761Z,51.96
2022-08-28T14:03:38.542Z,51.98
2022-08-28T14:06:12.214Z,51.58
2022-08-28T14:08:40.840Z,51.40
2022-08-28T14:11:08.302Z,51.64
2022-08-28T14:13:39.836Z,51.15
2022-08-28T14:16:08.044Z,51.17
2022-08-28T14:18:34.995Z,51.43
2022-08-28T14:21:05.159Z,51.35
2022-08-28T14:23:32.188Z,51.49
2022-08-28T14:25:58.708Z,52.89
2022-08-28T14:28:25.176Z,51.70
2022-08-28T14:30:52.741Z,51.53
2022-08-28T14:33:20.751Z,51.55
2022-08-28T14:35:48.842Z,51.39
2022-08-28T14:38:15.767Z,50.77
2022-08-28T14:40:44.436Z,52.04
2022-08-28T14:43:12.241Z,51.10
2022-08-28T14:45:44.660Z,51.88
2022-08-28T14:48:11.449Z,51.58
2022-08-28T14:50:44.038Z,51.81
2022-08-28T14:53:11.743Z,51.87
2022-08-28T14:55:41.004Z,52.37
2022-08-28T14:58:07.624Z,51.32
2022-08-28T15:00:39.560Z,50.68
2022-08-28T15:03:06.482Z,51.08
2022-08-28T15:05:34.059Z,50.38
2022-08-28T15:08:00.596Z,51.75
2022-08-28T15:10:27.071Z,51.04
2022-08-28T15:12:53.594Z,50.45
2022-08-28T15:15:22.899Z,50.16
2022-08-28T15:17:49.486Z,49.99
2022-08-28T15:20:16.075Z,50.15
2022-08-28T15:22:42.952Z,50.01
2022-08-28T15:25:09.680Z,49.63
2022-08-28T15:27:36.536Z,49.64
2022-08-28T15:30:04.631Z,49.68
2022-08-28T15:32:31.243Z,49.60
2022-08-28T15:34:57.795Z,49.76
2022-08-28T15:37:24.431Z,49.88
2022-08-28T15:40:09.469Z,49.87
2022-08-28T15:42:36.015Z,49.30
2022-08-28T15:45:02.499Z,48.69
2022-08-28T15:47:30.123Z,49.89
2022-08-28T15:49:57.095Z,49.75
2022-08-28T15:52:24.749Z,48.77
2022-08-28T15:54:51.343Z,49.08
2022-08-28T15:57:19.662Z,49.62
2022-08-28T15:59:50.649Z,48.85
2022-08-28T16:02:24.945Z,49.19
2022-08-28T16:04:52.567Z,49.05
2022-08-28T16:07:20.826Z,48.70
2022-08-28T16:09:47.834Z,47.64
2022-08-28T16:12:14.488Z,47.54
2022-08-28T16:14:41.151Z,47.15
2022-08-28T16:17:10.849Z,47.55
2022-08-28T16:19:39.683Z,46.90
2022-08-28T16:22:06.761Z,46.43
2022-08-28T16:24:33.670Z,46.76
2022-08-28T16:27:00.318Z,46.76
2022-08-28T16:29:26.814Z,46.70
2022-08-28T16:31:53.410Z,45.84
2022-08-28T16:34:20.244Z,46.06
2022-08-28T16:36:48.172Z,46.48
2022-08-28T16:39:14.873Z,45.86
2022-08-28T16:41:42.084Z,45.91
2022-08-28T16:44:09.008Z,44.75
2022-08-28T16:46:35.528Z,44.44
2022-08-28T16:49:02.555Z,44.23
2022-08-28T16:51:29.761Z,44.17
2022-08-28T16:53:56.533Z,44.17
2022-08-28T16:56:26.540Z,43.74
2022-08-28T16:58:53.412Z,44.10
2022-08-28T17:01:22.056Z,43.85
2022-08-28T17:03:51.870Z,43.97
2022-08-28T17:06:23.304Z,44.18
2022-08-28T17:08:55.927Z,44.08
2022-08-28T17:11:24.434Z,43.95
2022-08-28T17:13:51.134Z,44.09
2022-08-28T17:16:20.478Z,43.79
2022-08-28T17:18:48.377Z,44.18
2022-08-28T17:21:38.317Z,43.80
2022-08-28T17:24:05.074Z,44.31
2022-08-28T17:26:31.539Z,43.92
2022-08-28T17:28:58.130Z,44.30
2022-08-28T17:31:24.767Z,44.39
2022-08-28T17:33:51.534Z,44.65
2022-08-28T17:36:21.338Z,44.80
2022-08-28T17:39:00.213Z,44.89
2022-08-28T17:41:27.378Z,44.93
2022-08-28T17:43:53.982Z,45.06
2022-08-28T17:46:20.536Z,44.82
2022-08-28T17:48:54.491Z,45.06
2022-08-28T17:51:42.091Z,45.25
2022-08-28T17:54:10.174Z,45.53
2022-08-28T17:56:36.650Z,45.22
2022-08-28T17:59:04.200Z,45.55
2022-08-28T18:01:30.714Z,45.90
2022-08-28T18:04:01.058Z,46.50
2022-08-28T18:06:27.611Z,46.34
2022-08-28T18:08:54.491Z,46.69
2022-08-28T18:11:20.987Z,46.39
2022-08-28T18:13:47.597Z,46.53
2022-08-28T18:16:14.394Z,46.73
2022-08-28T18:18:41.856Z,47.03
2022-08-28T18:21:12.523Z,47.28
2022-08-28T18:23:39.865Z,47.73
2022-08-28T18:26:08.139Z,47.80
2022-08-28T18:28:36.113Z,47.95
2022-08-28T18:31:05.617Z,48.29
2022-08-28T18:33:33.322Z,48.23
2022-08-28T18:36:00.010Z,48.66
2022-08-28T18:38:34.976Z,48.84
2022-08-28T18:41:05.647Z,48.77
2022-08-28T18:43:32.318Z,49.01
2022-08-28T18:46:00.827Z,48.92
2022-08-28T18:48:27.845Z,49.22
2022-08-28T18:50:54.588Z,49.12
2022-08-28T18:53:22.289Z,49.68
2022-08-28T18:55:52.789Z,50.32
2022-08-28T18:58:20.434Z,50.24
2022-08-28T19:00:47.024Z,50.12
2022-08-28T19:03:14.559Z,50.33
2022-08-28T19:05:41.724Z,50.51
2022-08-28T19:08:08.223Z,49.84
2022-08-28T19:10:36.865Z,50.35
2022-08-28T19:13:04.561Z,50.22
2022-08-28T19:15:31.861Z,49.78
2022-08-28T19:18:00.434Z,48.66
2022-08-28T19:20:28.232Z,48.55
2022-08-28T19:22:55.845Z,48.32
2022-08-28T19:25:28.399Z,47.88
2022-08-28T19:27:59.786Z,47.43
2022-08-28T19:30:28.951Z,47.49
2022-08-28T19:32:55.716Z,47.68
2022-08-28T19:35:24.479Z,47.36
2022-08-28T19:37:52.110Z,47.21
2022-08-28T19:40:19.915Z,46.46
2022-08-28T19:42:46.587Z,46.52
2022-08-28T19:45:14.862Z,46.48
2022-08-28T19:47:41.520Z,46.62
2022-08-28T19:50:10.339Z,46.68
2022-08-28T19:52:38.890Z,46.29
2022-08-28T19:55:06.721Z,46.46
2022-08-28T19:57:33.838Z,45.81
2022-08-28T20:00:00.773Z,45.68
2022-08-28T20:02:28.494Z,45.84
2022-08-28T20:04:55.502Z,45.87
2022-08-28T20:07:23.070Z,45.92
2022-08-28T20:09:49.513Z,46.14
2022-08-28T20:12:16.090Z,45.76
2022-08-28T20:14:42.606Z,45.70
2022-08-28T20:17:09.528Z,46.23
2022-08-28T20:19:36.356Z,45.58
2022-08-28T20:22:03.899Z,45.96
2022-08-28T20:24:30.534Z,46.45
2022-08-28T20:26:57.370Z,46.26
2022-08-28T20:29:24.234Z,46.30
2022-08-28T20:31:51.295Z,45.92
2022-08-28T20:34:19.293Z,46.22
2022-08-28T20:36:46.110Z,46.60
2022-08-28T20:39:12.737Z,46.52
2022-08-28T20:41:40.407Z,45.98
2022-08-28T20:44:09.237Z,46.26
2022-08-28T20:46:40.760Z,46.62
2022-08-28T20:49:10.409Z,46.70
2022-08-28T20:51:55.621Z,46.22
2022-08-28T20:54:33.630Z,45.95
2022-08-28T20:57:03.518Z,46.00
2022-08-28T20:59:39.413Z,45.89
2022-08-28T21:02:10.442Z,46.35
2022-08-28T21:04:38.846Z,46.19
2022-08-28T21:07:05.910Z,46.26
2022-08-28T21:09:42.360Z,46.31
2022-08-28T21:12:19.820Z,46.55
2022-08-28T21:14:51.552Z,46.52
2022-08-28T21:17:22.601Z,46.30
2022-08-28T21:19:57.389Z,46.69
2022-08-28T21:22:23.899Z,47.14
2022-08-28T21:24:50.398Z,47.24
2022-08-28T21:27:18.448Z,47.58
2022-08-28T21:29:45.800Z,47.11
2022-08-28T21:32:12.401Z,47.57
2022-08-28T21:34:38.945Z,47.93
2022-08-28T21:37:06.295Z,48.18
2022-08-28T21:39:32.812Z,48.09
2022-08-28T21:41:59.285Z,48.44
2022-08-28T21:44:25.768Z,48.43
2022-08-28T21:46:52.305Z,48.88
2022-08-28T21:49:18.972Z,49.24
2022-08-28T21:51:45.643Z,49.47
2022-08-28T21:54:12.132Z,49.31
2022-08-28T21:56:38.627Z,49.59
2022-08-28T21:59:05.139Z,48.92
2022-08-28T22:01:31.687Z,49.42
2022-08-28T22:03:58.394Z,49.89
2022-08-28T22:06:26.396Z,49.81
2022-08-28T22:08:53.866Z,50.01
2022-08-28T22:11:24.730Z,50.38
2022-08-28T22:13:52.494Z,50.15
2022-08-28T22:16:19.620Z,50.88
2022-08-28T22:18:46.701Z,50.99
2022-08-28T22:21:33.515Z,50.67
2022-08-28T22:24:00.136Z,50.80
2022-08-28T22:26:26.925Z,50.72
2022-08-28T22:28:53.608Z,50.61
2022-08-28T22:31:20.611Z,50.38
2022-08-28T22:33:47.944Z,50.65
2022-08-28T22:36:14.468Z,50.65
2022-08-28T22:38:41.402Z,51.16
2022-08-28T22:41:13.626Z,50.48
2022-08-28T22:43:40.229Z,50.86
2022-08-28T22:46:08.273Z,51.13
2022-08-28T22:48:35.505Z,51.43
2022-08-28T22:51:08.997Z,51.39
2022-08-28T22:53:36.234Z,51.41
2022-08-28T22:56:03.551Z,51.47
2022-08-28T22:58:32.657Z,51.71
2022-08-28T23:01:02.064Z,51.52
2022-08-28T23:03:28.754Z,51.89
2022-08-28T23:05:55.530Z,52.36
2022-08-28T23:08:22.041Z,52.00
2022-08-28T23:10:59.024Z,52.21
2022-08-28T23:13:26.268Z,52.23
2022-08-28T23:15:52.845Z,52.25
2022-08-28T23:18:20.310Z,52.63
2022-08-28T23:20:46.887Z,52.59
2022-08-28T23:23:17.080Z,52.48
2022-08-28T23:25:43.952Z,52.35
2022-08-28T23:28:10.485Z,52.50
2022-08-28T23:30:38.863Z,52.57
2022-08-28T23:33:08.406Z,52.90
2022-08-28T23:35:36.311Z,53.06
2022-08-28T23:38:03.582Z,53.15
2022-08-28T23:40:30.602Z,53.13
2022-08-28T23:42:58.030Z,52.94
2022-08-28T23:45:26.038Z,53.25
2022-08-28T23:47:53.948Z,53.19
2022-08-28T23:50:23.258Z,53.28
2022-08-28T23:52:50.478Z,53.48
2022-08-28T23:55:18.680Z,53.59
2022-08-28T23:57:45.735Z,53.62
